createdAt,value
2023-02-26T00:00:57.271Z,1.35
2023-02-26T00:03:29.856Z,1.29
2023-02-26T00:06:04.883Z,1.24
2023-02-26T00:08:37.186Z,1.20
2023-02-26T00:11:14.084Z,1.26
2023-02-26T00:13:47.020Z,1.21
2023-02-26T00:16:36.796Z,1.25
2023-02-26T00:19:12.098Z,1.16
2023-02-26T00:21:44.693Z,1.12
2023-02-26T00:24:16.907Z,1.18
2023-02-26T00:26:49.104Z,1.20
2023-02-26T00:29:21.599Z,1.14
2023-02-26T00:31:56.806Z,1.19
2023-02-26T00:34:29.528Z,1.09
2023-02-26T00:37:26.437Z,1.08
2023-02-26T00:40:45.835Z,1.15
2023-02-26T00:43:24.753Z,1.19
2023-02-26T00:46:10.564Z,1.16
2023-02-26T00:49:23.858Z,1.20
2023-02-26T00:52:00.214Z,1.21
2023-02-26T00:54:34.198Z,1.22
2023-02-26T00:57:09.076Z,1.19
2023-02-26T00:59:41.168Z,1.11
2023-02-26T01:02:14.315Z,1.12
2023-02-26T01:04:48.571Z,1.15
2023-02-26T01:07:27.991Z,1.17
2023-02-26T01:10:00.364Z,1.12
2023-02-26T01:12:33.096Z,1.10
2023-02-26T01:15:07.095Z,1.07
2023-02-26T01:18:16.555Z,1.04
2023-02-26T01:20:55.635Z,1.06
2023-02-26T01:23:33.571Z,1.05
2023-02-26T01:26:25.429Z,0.91
2023-02-26T01:28:59.287Z,0.84
2023-02-26T01:32:32.452Z,0.77
2023-02-26T01:35:36.548Z,0.85
2023-02-26T01:38:47.589Z,0.87
2023-02-26T01:41:39.184Z,0.93
2023-02-26T01:44:32.992Z,0.94
2023-02-26T01:47:07.656Z,0.96
2023-02-26T01:49:40.467Z,0.93
2023-02-26T01:52:50.238Z,0.90
2023-02-26T01:55:29.146Z,0.85
2023-02-26T01:58:14.803Z,0.81
2023-02-26T02:00:47.408Z,0.82
2023-02-26T02:03:31.062Z,0.82
2023-02-26T02:06:12.777Z,0.86
2023-02-26T02:08:45.675Z,0.85
2023-02-26T02:11:18.358Z,0.87
2023-02-26T02:14:14.208Z,0.89
2023-02-26T02:17:21.703Z,0.72
2023-02-26T02:20:14.668Z,0.79
2023-02-26T02:23:03.879Z,0.82
2023-02-26T02:26:20.738Z,0.84
2023-02-26T02:29:44.674Z,0.84
2023-02-26T02:32:48.474Z,0.79
2023-02-26T02:35:57.121Z,0.80
2023-02-26T02:38:39.044Z,0.81
2023-02-26T02:41:47.017Z,0.79
2023-02-26T02:44:26.731Z,0.79
2023-02-26T02:47:00.898Z,0.79
2023-02-26T02:49:53.214Z,0.77
2023-02-26T02:52:39.771Z,0.75
2023-02-26T02:55:22.905Z,0.74
2023-02-26T02:58:17.339Z,0.74
2023-02-26T03:00:55.167Z,0.72
2023-02-26T03:03:37.760Z,0.70
2023-02-26T03:06:09.930Z,0.63
2023-02-26T03:08:47.850Z,0.62
2023-02-26T03:11:21.780Z,0.68
2023-02-26T03:13:55.176Z,0.68
2023-02-26T03:17:36.122Z,0.61
2023-02-26T03:20:21.596Z,0.63
2023-02-26T03:23:18.360Z,0.63
2023-02-26T03:26:02.059Z,0.61
2023-02-26T03:29:06.387Z,0.64
2023-02-26T03:31:45.147Z,0.61
2023-02-26T03:34:37.005Z,0.57
2023-02-26T03:37:41.014Z,0.65
2023-02-26T03:40:25.124Z,0.72
2023-02-26T03:43:20.513Z,0.78
2023-02-26T03:46:29.320Z,0.73
2023-02-26T03:49:09.716Z,0.71
2023-02-26T03:51:44.605Z,0.72
2023-02-26T03:54:44.122Z,0.64
2023-02-26T03:57:19.093Z,0.68
2023-02-26T03:59:56.998Z,0.68
2023-02-26T04:03:10.713Z,0.70
2023-02-26T04:05:49.270Z,0.70
2023-02-26T04:08:23.213Z,0.61
2023-02-26T04:11:12.890Z,0.62
2023-02-26T04:13:48.387Z,0.64
2023-02-26T04:16:21.225Z,0.61
2023-02-26T04:18:57.133Z,0.61
2023-02-26T04:21:29.328Z,0.66
2023-02-26T04:24:04.659Z,0.65
2023-02-26T04:26:36.829Z,0.65
2023-02-26T04:29:09.103Z,0.64
2023-02-26T04:32:13.487Z,0.66
2023-02-26T04:34:45.601Z,0.60
2023-02-26T04:37:17.777Z,0.64
2023-02-26T04:39:49.862Z,0.63
2023-02-26T04:42:22.054Z,0.65
2023-02-26T04:44:54.224Z,0.62
2023-02-26T04:47:30.459Z,0.59
2023-02-26T04:50:05.350Z,0.59
2023-02-26T04:52:40.238Z,0.56
2023-02-26T04:55:12.418Z,0.59
2023-02-26T04:57:46.842Z,0.60
2023-02-26T05:00:20.082Z,0.59
2023-02-26T05:02:52.222Z,0.59
2023-02-26T05:05:26.174Z,0.50
2023-02-26T05:08:00.223Z,0.50
2023-02-26T05:11:07.430Z,0.49
2023-02-26T05:13:39.974Z,0.47
2023-02-26T05:16:42.939Z,0.49
2023-02-26T05:19:15.926Z,0.40
2023-02-26T05:21:49.416Z,0.44
2023-02-26T05:24:21.658Z,0.46
2023-02-26T05:30:05.863Z,0.44
2023-02-26T05:32:41.263Z,0.45
2023-02-26T05:35:18.006Z,0.43
2023-02-26T05:37:51.586Z,0.43
2023-02-26T05:40:27.014Z,0.42
2023-02-26T05:42:59.122Z,0.43
2023-02-26T05:45:36.528Z,0.42
2023-02-26T05:48:08.738Z,0.41
2023-02-26T05:50:40.913Z,0.43
2023-02-26T05:53:13.094Z,0.44
2023-02-26T05:55:45.351Z,0.48
2023-02-26T05:58:20.382Z,0.44
2023-02-26T06:00:55.016Z,0.43
2023-02-26T06:03:27.245Z,0.43
2023-02-26T06:05:59.491Z,0.47
2023-02-26T06:08:31.587Z,0.45
2023-02-26T06:11:03.878Z,0.44
2023-02-26T06:13:36.273Z,0.39
2023-02-26T06:16:08.915Z,0.39
2023-02-26T06:18:41.154Z,0.37
2023-02-26T06:21:13.271Z,0.38
2023-02-26T06:23:45.824Z,0.40
2023-02-26T06:26:30.186Z,0.36
2023-02-26T06:29:02.516Z,0.36
2023-02-26T06:31:37.332Z,0.39
2023-02-26T06:34:09.526Z,0.41
2023-02-26T06:36:42.068Z,0.40
2023-02-26T06:39:14.424Z,0.44
2023-02-26T06:41:46.447Z,0.46
2023-02-26T06:44:21.686Z,0.52
2023-02-26T06:46:56.958Z,0.48
2023-02-26T06:50:29.183Z,0.52
2023-02-26T06:53:01.235Z,0.56
2023-02-26T06:55:33.522Z,0.55
2023-02-26T06:58:11.402Z,0.55
2023-02-26T07:00:43.519Z,0.60
2023-02-26T07:03:17.622Z,0.61
2023-02-26T07:05:49.998Z,0.67
2023-02-26T07:08:21.971Z,0.69
2023-02-26T07:10:53.974Z,0.66
2023-02-26T07:14:12.422Z,0.72
2023-02-26T07:16:44.755Z,0.71
2023-02-26T07:19:16.805Z,0.78
2023-02-26T07:21:49.052Z,0.82
2023-02-26T07:24:22.769Z,0.89
2023-02-26T07:26:54.756Z,0.94
2023-02-26T07:29:26.738Z,1.03
2023-02-26T07:31:58.847Z,1.14
2023-02-26T07:34:34.317Z,1.26
2023-02-26T07:37:06.733Z,1.30
2023-02-26T07:39:38.912Z,1.34
2023-02-26T07:42:11.173Z,1.44
2023-02-26T07:44:46.237Z,1.52
2023-02-26T07:47:18.261Z,1.59
2023-02-26T07:49:50.351Z,1.64
2023-02-26T07:52:22.708Z,1.67
2023-02-26T07:54:55.278Z,1.76
2023-02-26T07:57:27.366Z,1.83
2023-02-26T07:59:59.375Z,1.97
2023-02-26T08:02:31.620Z,2.04
2023-02-26T08:05:03.771Z,2.19
2023-02-26T08:07:36.087Z,2.33
2023-02-26T08:10:09.261Z,2.52
2023-02-26T08:12:41.275Z,2.62
2023-02-26T08:15:14.535Z,2.83
2023-02-26T08:17:46.595Z,2.96
2023-02-26T08:20:19.563Z,3.07
2023-02-26T08:22:53.331Z,3.36
2023-02-26T08:25:25.382Z,3.51
2023-02-26T08:27:58.694Z,3.44
2023-02-26T08:30:30.980Z,3.26
2023-02-26T08:33:03.162Z,3.28
2023-02-26T08:35:47.484Z,3.29
2023-02-26T08:38:20.632Z,3.31
2023-02-26T08:41:17.925Z,3.19
2023-02-26T08:43:53.935Z,3.14
2023-02-26T08:46:26.977Z,3.09
2023-02-26T08:49:00.897Z,2.99
2023-02-26T08:51:44.443Z,2.97
2023-02-26T08:54:16.778Z,3.01
2023-02-26T08:56:53.503Z,2.95
2023-02-26T08:59:29.772Z,3.01
2023-02-26T09:02:03.378Z,3.01
2023-02-26T09:04:37.149Z,2.95
2023-02-26T09:07:09.288Z,3.01
2023-02-26T09:09:45.861Z,3.05
2023-02-26T09:12:19.596Z,3.02
2023-02-26T09:14:51.702Z,3.08
2023-02-26T09:17:23.933Z,3.16
2023-02-26T09:19:58.003Z,3.20
2023-02-26T09:22:33.453Z,3.21
2023-02-26T09:25:09.381Z,3.17
2023-02-26T09:27:42.045Z,3.23
2023-02-26T09:30:26.010Z,3.29
2023-02-26T09:33:05.772Z,3.28
2023-02-26T09:35:44.403Z,3.34
2023-02-26T09:38:17.041Z,3.33
2023-02-26T09:41:01.263Z,3.40
2023-02-26T09:43:55.813Z,3.47
2023-02-26T09:46:42.062Z,3.66
2023-02-26T09:49:40.531Z,3.70
2023-02-26T09:52:26.595Z,3.73
2023-02-26T09:55:30.052Z,3.75
2023-02-26T09:58:31.600Z,3.82
2023-02-26T10:01:48.924Z,3.99
2023-02-26T10:05:31.221Z,3.89
2023-02-26T10:08:16.092Z,3.86
2023-02-26T10:11:07.845Z,4.01
2023-02-26T10:13:58.353Z,4.20
2023-02-26T10:16:39.362Z,4.38
2023-02-26T10:19:18.961Z,4.46
2023-02-26T10:22:27.184Z,4.75
2023-02-26T10:25:08.011Z,5.04
2023-02-26T10:28:26.875Z,5.40
2023-02-26T10:31:07.708Z,5.49
2023-02-26T10:33:58.736Z,5.85
2023-02-26T10:36:58.163Z,6.68
2023-02-26T10:40:09.999Z,9.47
2023-02-26T10:42:57.152Z,10.78
2023-02-26T10:46:03.027Z,12.17
2023-02-26T10:49:09.597Z,13.18
2023-02-26T10:51:42.105Z,14.72
2023-02-26T10:54:32.177Z,14.91
2023-02-26T10:57:04.616Z,13.72
2023-02-26T10:59:36.814Z,11.77
2023-02-26T11:02:46.404Z,10.15
2023-02-26T11:05:25.452Z,9.04
2023-02-26T11:08:31.104Z,8.54
2023-02-26T11:11:10.451Z,7.93
2023-02-26T11:13:43.084Z,7.56
2023-02-26T11:16:17.195Z,7.56
2023-02-26T11:18:54.507Z,7.38
2023-02-26T11:21:39.020Z,7.40
2023-02-26T11:24:38.343Z,7.41
2023-02-26T11:27:38.146Z,6.71
2023-02-26T11:30:22.194Z,6.52
2023-02-26T11:32:59.080Z,6.27
2023-02-26T11:35:33.783Z,6.09
2023-02-26T11:38:06.189Z,6.22
2023-02-26T11:40:42.112Z,6.44
2023-02-26T11:43:20.987Z,6.75
2023-02-26T11:45:59.761Z,7.24
2023-02-26T11:49:00.132Z,7.16
2023-02-26T11:51:32.194Z,7.35
2023-02-26T11:54:04.552Z,7.40
2023-02-26T11:56:44.255Z,7.37
2023-02-26T11:59:25.852Z,6.87
2023-02-26T12:02:06.917Z,6.78
2023-02-26T12:04:45.170Z,6.77
2023-02-26T12:07:21.665Z,6.60
2023-02-26T12:09:53.797Z,6.67
2023-02-26T12:12:53.091Z,6.71
2023-02-26T12:15:44.108Z,6.84
2023-02-26T12:18:37.875Z,6.78
2023-02-26T12:21:55.784Z,6.72
2023-02-26T12:24:55.676Z,6.63
2023-02-26T12:27:57.325Z,6.86
2023-02-26T12:31:03.948Z,7.10
2023-02-26T12:34:00.361Z,6.99
2023-02-26T12:37:09.757Z,7.41
2023-02-26T12:40:37.392Z,7.94
2023-02-26T12:43:25.916Z,8.05
2023-02-26T12:46:33.176Z,8.02
2023-02-26T12:49:46.851Z,7.70
2023-02-26T12:52:41.565Z,7.47
2023-02-26T12:55:39.750Z,7.10
2023-02-26T12:58:39.574Z,7.11
2023-02-26T13:01:34.365Z,7.35
2023-02-26T13:04:47.853Z,7.50
2023-02-26T13:07:49.881Z,7.54
2023-02-26T13:10:52.729Z,7.84
2023-02-26T13:14:21.405Z,8.14
2023-02-26T13:16:56.257Z,8.41
2023-02-26T13:19:44.797Z,8.42
2023-02-26T13:22:47.655Z,8.34
2023-02-26T13:25:29.565Z,8.12
2023-02-26T13:28:14.516Z,7.86
2023-02-26T13:30:56.125Z,7.90
2023-02-26T13:33:35.338Z,7.94
2023-02-26T13:36:08.884Z,7.87
2023-02-26T13:39:05.355Z,7.80
2023-02-26T13:42:07.829Z,7.85
2023-02-26T13:44:48.461Z,7.98
2023-02-26T13:48:04.363Z,7.98
2023-02-26T13:50:57.662Z,7.88
2023-02-26T13:54:05.137Z,7.83
2023-02-26T13:56:40.452Z,7.69
2023-02-26T13:59:16.925Z,7.65
2023-02-26T14:02:01.646Z,7.77
2023-02-26T14:04:55.108Z,7.78
2023-02-26T14:07:52.968Z,7.86
2023-02-26T14:10:27.188Z,8.03
2023-02-26T14:13:16.988Z,8.06
2023-02-26T14:16:44.990Z,8.01
2023-02-26T14:19:35.540Z,7.97
2023-02-26T14:22:36.305Z,7.86
2023-02-26T14:25:48.209Z,7.77
2023-02-26T14:28:26.989Z,7.62
2023-02-26T14:31:52.838Z,7.24
2023-02-26T14:34:37.369Z,6.92
2023-02-26T14:37:16.352Z,6.86
2023-02-26T14:40:10.829Z,6.77
2023-02-26T14:42:59.785Z,6.82
2023-02-26T14:45:37.636Z,7.00
2023-02-26T14:48:19.145Z,7.26
2023-02-26T14:51:36.163Z,7.42
2023-02-26T14:54:58.740Z,7.63
2023-02-26T14:57:55.553Z,7.65
2023-02-26T15:00:46.478Z,7.51
2023-02-26T15:03:18.701Z,7.29
2023-02-26T15:06:06.198Z,7.10
2023-02-26T15:09:25.659Z,6.87
2023-02-26T15:12:26.231Z,6.61
2023-02-26T15:15:13.153Z,6.46
2023-02-26T15:18:14.749Z,6.23
2023-02-26T15:21:22.123Z,6.10
2023-02-26T15:23:56.240Z,6.00
2023-02-26T15:26:34.164Z,6.02
2023-02-26T15:29:14.085Z,6.00
2023-02-26T15:32:06.221Z,6.05
2023-02-26T15:34:38.528Z,6.03
2023-02-26T15:37:22.349Z,6.09
2023-02-26T15:39:57.565Z,6.10
2023-02-26T15:42:34.688Z,6.09
2023-02-26T15:45:22.223Z,6.00
2023-02-26T15:48:02.646Z,6.02
2023-02-26T15:50:40.934Z,6.00
2023-02-26T15:53:23.264Z,6.02
2023-02-26T15:55:57.777Z,6.06
2023-02-26T15:58:41.079Z,6.12
2023-02-26T16:01:20.027Z,6.09
2023-02-26T16:03:56.774Z,6.09
2023-02-26T16:06:47.439Z,6.09
2023-02-26T16:09:34.945Z,6.00
2023-02-26T16:12:16.592Z,5.91
2023-02-26T16:15:04.209Z,5.79
2023-02-26T16:17:43.846Z,5.76
2023-02-26T16:20:20.897Z,5.71
2023-02-26T16:23:12.618Z,5.45
2023-02-26T16:25:55.395Z,5.48
2023-02-26T16:28:35.333Z,5.42
2023-02-26T16:31:19.820Z,5.38
2023-02-26T16:34:22.949Z,5.35
2023-02-26T16:36:55.895Z,5.28
2023-02-26T16:39:31.550Z,5.23
2023-02-26T16:42:16.092Z,5.20
2023-02-26T16:44:57.595Z,5.17
2023-02-26T16:47:31.417Z,5.14
2023-02-26T16:50:03.771Z,5.11
2023-02-26T16:52:35.950Z,5.12
2023-02-26T16:55:18.441Z,5.12
2023-02-26T16:57:50.930Z,5.12
2023-02-26T17:00:32.165Z,5.12
2023-02-26T17:03:21.069Z,5.14
2023-02-26T17:06:01.839Z,5.19
2023-02-26T17:08:58.609Z,5.20
2023-02-26T17:11:39.956Z,5.23
2023-02-26T17:14:29.268Z,5.20
2023-02-26T17:17:01.309Z,5.19
2023-02-26T17:19:34.061Z,5.17
2023-02-26T17:22:12.964Z,5.10
2023-02-26T17:24:47.613Z,5.11
2023-02-26T17:27:34.131Z,5.05
2023-02-26T17:30:16.201Z,5.05
2023-02-26T17:32:48.462Z,5.08
2023-02-26T17:35:20.674Z,5.10
2023-02-26T17:37:54.122Z,5.05
2023-02-26T17:40:31.854Z,5.01
2023-02-26T17:43:04.999Z,4.98
2023-02-26T17:45:40.361Z,5.01
2023-02-26T17:48:15.715Z,4.99
2023-02-26T17:50:54.699Z,5.02
2023-02-26T17:53:34.084Z,5.02
2023-02-26T17:56:11.142Z,5.01
2023-02-26T17:58:43.549Z,4.97
2023-02-26T18:01:16.465Z,4.96
2023-02-26T18:03:48.521Z,4.91
2023-02-26T18:06:22.086Z,4.92
2023-02-26T18:08:54.295Z,4.86
2023-02-26T18:11:26.751Z,4.77
2023-02-26T18:13:59.597Z,4.71
2023-02-26T18:16:40.087Z,4.62
2023-02-26T18:19:15.192Z,4.53
2023-02-26T18:21:47.300Z,4.43
2023-02-26T18:24:19.345Z,4.36
2023-02-26T18:26:51.616Z,4.30
2023-02-26T18:29:23.572Z,4.25
2023-02-26T18:31:55.844Z,4.20
2023-02-26T18:34:28.097Z,4.14
2023-02-26T18:37:00.452Z,4.11
2023-02-26T18:39:34.457Z,4.03
2023-02-26T18:42:06.874Z,3.99
2023-02-26T18:44:38.950Z,3.95
2023-02-26T18:47:11.566Z,3.94
2023-02-26T18:49:46.029Z,3.90
2023-02-26T18:52:18.911Z,3.82
2023-02-26T18:54:51.119Z,3.80
2023-02-26T18:57:23.290Z,3.74
2023-02-26T18:59:55.815Z,3.72
2023-02-26T19:02:30.705Z,3.67
2023-02-26T19:05:04.036Z,3.56
2023-02-26T19:07:36.618Z,3.58
2023-02-26T19:10:13.630Z,3.54
2023-02-26T19:12:46.077Z,3.51
2023-02-26T19:15:18.758Z,3.49
2023-02-26T19:17:51.399Z,3.48
2023-02-26T19:20:23.514Z,3.45
2023-02-26T19:22:55.663Z,3.41
2023-02-26T19:25:29.387Z,3.36
2023-02-26T19:28:01.826Z,3.34
2023-02-26T19:30:34.743Z,3.31
2023-02-26T19:33:07.547Z,3.29
2023-02-26T19:35:39.879Z,3.23
2023-02-26T19:38:12.190Z,3.22
2023-02-26T19:40:44.241Z,3.21
2023-02-26T19:43:16.329Z,3.18
2023-02-26T19:45:48.305Z,3.17
2023-02-26T19:48:21.317Z,3.13
2023-02-26T19:50:55.541Z,3.11
2023-02-26T19:53:27.668Z,3.11
2023-02-26T19:55:59.829Z,3.10
2023-02-26T19:58:34.611Z,3.07
2023-02-26T20:01:07.115Z,3.04
2023-02-26T20:03:40.898Z,3.01
2023-02-26T20:06:13.578Z,2.98
2023-02-26T20:08:48.340Z,2.97
2023-02-26T20:11:20.937Z,2.95
2023-02-26T20:13:53.243Z,2.93
2023-02-26T20:16:26.362Z,2.91
2023-02-26T20:18:58.431Z,2.89
2023-02-26T20:21:30.686Z,2.85
2023-02-26T20:24:02.755Z,2.82
2023-02-26T20:26:36.157Z,2.82
2023-02-26T20:29:09.098Z,2.80
2023-02-26T20:31:41.306Z,2.77
2023-02-26T20:34:13.439Z,2.76
2023-02-26T20:36:47.619Z,2.74
2023-02-26T20:39:21.101Z,2.73
2023-02-26T20:41:53.241Z,2.67
2023-02-26T20:44:25.199Z,2.66
2023-02-26T20:46:57.630Z,2.64
2023-02-26T20:49:33.731Z,2.61
2023-02-26T20:52:05.814Z,2.58
2023-02-26T20:54:39.479Z,2.58
2023-02-26T20:57:12.118Z,2.58
2023-02-26T20:59:44.229Z,2.55
2023-02-26T21:02:20.701Z,2.52
2023-02-26T21:04:52.876Z,2.51
2023-02-26T21:07:25.289Z,2.51
2023-02-26T21:10:03.953Z,2.51
2023-02-26T21:12:36.447Z,2.54
2023-02-26T21:15:10.766Z,2.54
2023-02-26T21:17:43.696Z,2.52
2023-02-26T21:20:18.173Z,2.53
2023-02-26T21:22:50.495Z,2.52
2023-02-26T21:25:22.820Z,2.48
2023-02-26T21:27:54.855Z,2.49
2023-02-26T21:30:30.618Z,2.48
2023-02-26T21:33:03.026Z,2.46
2023-02-26T21:35:35.363Z,2.44
2023-02-26T21:38:07.428Z,2.41
2023-02-26T21:40:39.745Z,2.43
2023-02-26T21:43:12.128Z,2.40
2023-02-26T21:45:50.087Z,2.38
2023-02-26T21:48:22.249Z,2.37
2023-02-26T21:50:56.632Z,2.34
2023-02-26T21:53:29.096Z,2.34
2023-02-26T21:56:04.941Z,2.32
2023-02-26T21:58:37.173Z,2.34
2023-02-26T22:01:10.690Z,2.34
2023-02-26T22:03:42.758Z,2.34
2023-02-26T22:06:14.776Z,2.33
2023-02-26T22:08:49.435Z,2.33
2023-02-26T22:11:21.485Z,2.32
2023-02-26T22:13:53.604Z,2.32
2023-02-26T22:16:26.126Z,2.32
2023-02-26T22:18:58.095Z,2.31
2023-02-26T22:21:30.159Z,2.31
2023-02-26T22:24:03.828Z,2.29
2023-02-26T22:26:35.911Z,2.29
2023-02-26T22:29:08.068Z,2.30
2023-02-26T22:31:40.117Z,2.30
2023-02-26T22:34:12.153Z,2.29
2023-02-26T22:36:44.575Z,2.28
2023-02-26T22:39:16.587Z,2.26
2023-02-26T22:41:48.714Z,2.22
2023-02-26T22:44:20.738Z,2.15
2023-02-26T22:46:52.784Z,2.13
2023-02-26T22:49:24.863Z,2.13
2023-02-26T22:51:59.310Z,2.13
2023-02-26T22:54:32.266Z,2.10
2023-02-26T22:57:09.833Z,2.08
2023-02-26T22:59:42.053Z,2.09
2023-02-26T23:02:16.047Z,2.07
2023-02-26T23:04:48.565Z,2.07
2023-02-26T23:07:21.762Z,2.04
2023-02-26T23:09:53.789Z,2.02
2023-02-26T23:12:26.307Z,2.04
2023-02-26T23:14:59.792Z,2.02
2023-02-26T23:17:35.834Z,2.02
2023-02-26T23:20:17.533Z,2.02
2023-02-26T23:22:49.688Z,1.99
2023-02-26T23:25:22.799Z,1.96
2023-02-26T23:27:57.375Z,1.94
2023-02-26T23:30:29.606Z,1.93
2023-02-26T23:33:02.438Z,1.96
2023-02-26T23:35:35.502Z,1.94
2023-02-26T23:38:08.943Z,1.94
2023-02-26T23:40:41.002Z,1.93
2023-02-26T23:43:20.016Z,1.91
2023-02-26T23:45:53.534Z,1.90
2023-02-26T23:48:27.474Z,1.94
2023-02-26T23:50:59.702Z,1.90
2023-02-26T23:53:31.920Z,1.89
2023-02-26T23:56:04.177Z,1.86
2023-02-26T23:58:36.130Z,1.84
